»·PEaware :: FFT2809 KOTH-KSFO

FFT2809 :: KOTH-KSFO

FLIGHT INFORMATION

Flight Status: Arrived
Operator:
Frontier Airlines
More flights by this operator :: More flights under this callsign
Pilot: Robert Y. (11885)
Aircraft: DEHAVILLAND DASH 8 400
(DH8D)
More flights by this aircraft type
Origin: KOTH North Bend Mun
United States
Destination: KSFO San Francisco Intl
United States
More flights between these airports :: More routes between these airports
Route: OTH6 LEDGE CEC KO60C AMAKR BDEGA2
File this flight plan on PilotEdge
Remarks:
Altitude:
(Current/Filed)
25,000ft
Speed:
(Current/Filed)
285kts
Departed: 10-Jun-17 06:31 PM
Arrived: 10-Jun-17 08:18 PM
Distance/Time
Traveled:
358nm/1:47
Distance/Time
To Go:
Arrived

Flight Plot

Page will automatically refresh every two minutes.

Flight plan parsing failed; only flown route is shown


Map Options




Map Legend


Flown Route
Filed Route
Departure Airport
Arrival Airport
Navaid (VOR, NDB)
Fix

Horizontal Profiles

Position Reports

Time Latitude Longitude Heading Altitude Ground
Speed
10-Jun-17 17:55 43.415207 -124.246313 236 24ft 0kts
10-Jun-17 17:56 43.415207 -124.246313 236 24ft 0kts
10-Jun-17 18:05 43.415207 -124.246313 236 24ft 0kts
10-Jun-17 18:06 43.415207 -124.246313 236 24ft 0kts
10-Jun-17 18:07 43.415207 -124.246313 236 24ft 0kts
10-Jun-17 18:08 43.415207 -124.246313 236 24ft 0kts
10-Jun-17 18:09 43.415207 -124.246313 236 24ft 0kts
10-Jun-17 18:10 43.415207 -124.246313 236 24ft 0kts
10-Jun-17 18:11 43.415498 -124.245384 311 24ft 3kts
10-Jun-17 18:12 43.415457 -124.245321 311 24ft 0kts
10-Jun-17 18:13 43.415457 -124.245321 311 24ft 0kts
10-Jun-17 18:14 43.415457 -124.245321 311 24ft 0kts
10-Jun-17 18:15 43.415457 -124.245321 311 24ft 0kts
10-Jun-17 18:16 43.415457 -124.245321 311 24ft 0kts
10-Jun-17 18:17 43.415457 -124.245321 311 24ft 0kts
10-Jun-17 18:18 43.415457 -124.245321 311 24ft 0kts
10-Jun-17 18:19 43.415457 -124.245321 311 24ft 0kts
10-Jun-17 18:20 43.415457 -124.245321 311 24ft 0kts
10-Jun-17 18:21 43.415457 -124.245321 311 24ft 0kts
10-Jun-17 18:22 43.415569 -124.245493 312 24ft 5kts
10-Jun-17 18:23 43.416758 -124.246550 329 24ft 10kts
10-Jun-17 18:24 43.417815 -124.246659 33 24ft 0kts
10-Jun-17 18:25 43.418177 -124.246656 331 24ft 8kts
10-Jun-17 18:26 43.419269 -124.246742 54 24ft 0kts
10-Jun-17 18:27 43.419224 -124.244748 66 24ft 11kts
10-Jun-17 18:28 43.420841 -124.240448 16 24ft 10kts
10-Jun-17 18:29 43.422447 -124.240456 350 24ft 0kts
10-Jun-17 18:30 43.422447 -124.240456 350 24ft 0kts
10-Jun-17 18:31 43.422445 -124.240456 350 24ft 0kts
10-Jun-17 18:32 43.421589 -124.243777 241 24ft 24kts
10-Jun-17 18:33 43.408197 -124.272293 232 1052ft 137kts
10-Jun-17 18:34 43.387226 -124.322013 261 3437ft 164kts
10-Jun-17 18:35 43.378989 -124.383807 256 6209ft 163kts
10-Jun-17 18:36 43.369182 -124.450436 258 8375ft 190kts
10-Jun-17 18:37 43.415801 -124.474019 50 10837ft 221kts
10-Jun-17 18:38 43.422125 -124.403750 91 12825ft 220kts
10-Jun-17 18:39 43.419733 -124.316411 91 14870ft 237kts
10-Jun-17 18:40 43.415460 -124.221295 108 16842ft 253kts
10-Jun-17 18:41 43.356467 -124.175482 177 18979ft 253kts
10-Jun-17 18:42 43.284831 -124.173496 184 21337ft 255kts
10-Jun-17 18:43 43.210674 -124.177513 185 22947ft 289kts
10-Jun-17 18:44 43.124841 -124.181484 185 22993ft 317kts
10-Jun-17 18:45 43.034794 -124.185393 186 22989ft 323kts
10-Jun-17 18:46 42.944383 -124.189484 187 22986ft 322kts
10-Jun-17 18:47 42.855130 -124.193394 188 22983ft 319kts
10-Jun-17 18:48 42.766479 -124.197410 188 22981ft 316kts
10-Jun-17 18:49 42.678691 -124.201270 189 22981ft 314kts
10-Jun-17 18:50 42.591627 -124.205224 190 22982ft 312kts
10-Jun-17 18:51 42.505107 -124.208990 190 22984ft 310kts
10-Jun-17 18:52 42.418889 -124.212817 191 22988ft 308kts
10-Jun-17 18:53 42.333526 -124.216651 191 22996ft 306kts
10-Jun-17 18:54 42.248491 -124.220397 191 23004ft 304kts
10-Jun-17 18:55 42.163757 -124.224088 192 23006ft 303kts
10-Jun-17 18:56 42.079590 -124.227687 192 23304ft 294kts
10-Jun-17 18:57 41.997533 -124.231055 193 24468ft 292kts
10-Jun-17 18:58 41.915554 -124.234773 194 25043ft 297kts
10-Jun-17 18:59 41.830900 -124.238809 193 25070ft 309kts
10-Jun-17 19:00 41.742939 -124.237005 185 25072ft 323kts
10-Jun-17 19:01 41.653971 -124.223502 186 25071ft 319kts
10-Jun-17 19:02 41.565932 -124.211423 186 25071ft 316kts
10-Jun-17 19:03 41.477564 -124.199331 186 25067ft 313kts
10-Jun-17 19:04 41.420561 -124.191467 186 25067ft 312kts
10-Jun-17 19:05 41.375223 -124.185084 186 25061ft 310kts
10-Jun-17 19:06 41.289249 -124.173446 187 25065ft 310kts
10-Jun-17 19:07 41.203135 -124.161581 187 25064ft 311kts
10-Jun-17 19:08 41.117129 -124.149796 187 25064ft 312kts
10-Jun-17 19:09 41.030835 -124.138024 187 25063ft 312kts
10-Jun-17 19:10 40.944735 -124.126341 187 25063ft 312kts
10-Jun-17 19:11 40.858137 -124.114607 188 25063ft 312kts
10-Jun-17 19:12 40.770326 -124.102914 187 25063ft 322kts
10-Jun-17 19:13 40.680813 -124.090653 188 25060ft 322kts
10-Jun-17 19:14 40.591419 -124.078609 188 25062ft 320kts
10-Jun-17 19:15 40.503009 -124.066782 188 25063ft 318kts
10-Jun-17 19:16 40.414768 -124.054967 188 25062ft 317kts
10-Jun-17 19:17 40.326628 -124.043147 189 25059ft 317kts
10-Jun-17 19:18 40.238075 -124.031461 189 25055ft 316kts
10-Jun-17 19:19 40.150372 -124.019808 189 25051ft 316kts
10-Jun-17 19:20 40.062778 -124.008288 189 25047ft 316kts
10-Jun-17 19:21 39.974961 -123.994949 184 25042ft 323kts
10-Jun-17 19:22 39.884781 -123.970952 183 25037ft 326kts
10-Jun-17 19:23 39.793836 -123.948018 184 25033ft 326kts
10-Jun-17 19:24 39.702637 -123.925105 183 25028ft 327kts
10-Jun-17 19:25 39.610455 -123.901918 183 25024ft 327kts
10-Jun-17 19:26 39.520285 -123.879422 183 24692ft 329kts
10-Jun-17 19:27 39.431304 -123.856917 183 24061ft 316kts
10-Jun-17 19:28 39.344990 -123.835560 183 24016ft 315kts
10-Jun-17 19:29 39.257725 -123.813899 183 24014ft 319kts
10-Jun-17 19:30 39.169521 -123.792011 182 24012ft 321kts
10-Jun-17 19:31 39.080114 -123.769850 182 24009ft 323kts
10-Jun-17 19:32 38.991193 -123.743679 168 24005ft 341kts
10-Jun-17 19:33 38.907672 -123.678206 161 24006ft 351kts
10-Jun-17 19:34 38.823716 -123.613238 161 24004ft 351kts
10-Jun-17 19:35 38.739894 -123.548118 161 24002ft 350kts
10-Jun-17 19:36 38.655776 -123.483055 161 23180ft 353kts
10-Jun-17 19:37 38.569960 -123.416850 160 21847ft 350kts
10-Jun-17 19:38 38.483210 -123.349981 160 20493ft 349kts
10-Jun-17 19:39 38.393717 -123.281321 159 19159ft 347kts
10-Jun-17 19:40 38.307314 -123.214869 159 18995ft 344kts
10-Jun-17 19:41 38.222321 -123.149945 158 18994ft 341kts
10-Jun-17 19:42 38.136569 -123.084572 158 18998ft 339kts
10-Jun-17 19:43 38.054088 -123.022026 158 19010ft 337kts
10-Jun-17 19:44 37.971714 -122.959654 158 19022ft 336kts
10-Jun-17 19:45 37.903554 -122.877154 107 19026ft 367kts
10-Jun-17 19:46 37.910470 -122.748363 83 19024ft 370kts
10-Jun-17 19:47 37.894802 -122.665522 138 18765ft 347kts
10-Jun-17 19:48 37.822477 -122.593026 150 17258ft 327kts
10-Jun-17 19:49 37.755348 -122.521102 147 15790ft 319kts
10-Jun-17 19:50 37.689248 -122.450672 147 14302ft 310kts
10-Jun-17 19:51 37.624702 -122.382017 146 12787ft 288kts
10-Jun-17 19:52 37.568212 -122.321945 147 11285ft 250kts
10-Jun-17 19:53 37.528449 -122.279646 146 10943ft 172kts
10-Jun-17 19:54 37.485183 -122.240378 137 9973ft 201kts
10-Jun-17 19:55 37.436515 -122.216591 195 9104ft 206kts
10-Jun-17 19:56 37.378135 -122.231224 194 8213ft 222kts
10-Jun-17 19:57 37.318030 -122.227087 134 7305ft 238kts
10-Jun-17 19:58 37.330976 -122.159301 20 6414ft 227kts
10-Jun-17 19:59 37.391651 -122.134491 14 5422ft 232kts
10-Jun-17 20:00 37.452656 -122.109618 14 4425ft 234kts
10-Jun-17 20:01 37.509405 -122.112179 324 3994ft 196kts
10-Jun-17 20:02 37.555832 -122.148290 324 3259ft 205kts
10-Jun-17 20:03 37.589045 -122.173721 324 3005ft 195kts
10-Jun-17 20:04 37.632157 -122.219699 298 2999ft 222kts
10-Jun-17 20:05 37.650286 -122.286069 244 3347ft 194kts
10-Jun-17 20:06 37.597897 -122.308312 194 3951ft 212kts
10-Jun-17 20:07 37.539708 -122.319068 193 3996ft 210kts
10-Jun-17 20:08 37.485351 -122.314260 137 3985ft 226kts
10-Jun-17 20:09 37.462208 -122.254432 114 3997ft 206kts
10-Jun-17 20:10 37.439578 -122.186982 114 3993ft 212kts
10-Jun-17 20:11 37.429484 -122.117546 50 3979ft 205kts
10-Jun-17 20:12 37.474218 -122.080691 17 3984ft 192kts
10-Jun-17 20:13 37.508888 -122.112629 296 4060ft 160kts
10-Jun-17 20:14 37.529586 -122.161415 295 3438ft 154kts
10-Jun-17 20:15 37.548011 -122.205135 294 2602ft 106kts
10-Jun-17 20:16 37.562566 -122.239866 294 2105ft 125kts
10-Jun-17 20:17 37.578130 -122.278152 297 1431ft 119kts
10-Jun-17 20:18 37.593665 -122.314476 295 815ft 107kts
10-Jun-17 20:19 37.607888 -122.349527 294 277ft 111kts
10-Jun-17 20:20 37.619646 -122.377290 298 20ft 15kts
10-Jun-17 20:21 37.620851 -122.377724 40 20ft 3kts
10-Jun-17 20:22 37.621023 -122.377520 47 20ft 0kts
10-Jun-17 20:23 37.622256 -122.375640 48 20ft 2kts
10-Jun-17 20:24 37.623476 -122.377193 299 21ft 10kts
10-Jun-17 20:25 37.624589 -122.379811 300 21ft 7kts
10-Jun-17 20:26 37.626203 -122.381036 28 21ft 8kts

Navigation Log

Ident Type
Flight plan parsing failed, navigation log unavailable